Robesonia, Pennsylvania
Current Conditions -  °F | °C
As of 10:54 PM on Friday 28 Nov 2014 (Local Time) from KRDG Reporting Station
Clear Clear  
Wind Chill: 27°   Ceiling: Unl
Heat Index: 27°   Visibility: 10mi
Dew Point: 15°   Wind: 3mph
Humidity: 61%   Direction: 240°WSW
Pressure: 30.26"   Gusts: NA
Location:  40.35°N, 76.13°W
Report Text: KRDG 290354Z AUTO 24003KT 10SM CLR M03/M09 A3026 RMK AO2 SLP258 T10281094
Loading
Personal Weather Stations






























Interactive Weather Map New forecast layout! Learn more

10-Day Weather Forecast

Advertisements
Track Severe Weather on mobile